KSME/SME METAR and TAF weather

Enter ICAO airport designator
Station Type Date Time Source
KSME METAR 2019/02/17 16:15 UTC NOAA

KSME 171615Z AUTO 00000KT 7SM RA BKN008 OVC016 05/05 A2982 RMK AO2


Station Type Date Time Source
KSME Decoded METAR 2019/02/17 16:15 UTC NOAA

Somerset, Somerset-Pulaski County - J.T. Wilson Field Airport, KY, United States (KSME) 37-03-15N 084-36-54W
Feb 17, 2019 - 11:15 AM EST / 2019.02.17 1615 UTC
Wind: Calm:0
Visibility: 7 mile(s):0
Sky conditions: overcast
Weather: rain
Temperature: 41 F (5 C)
Dew Point: 41 F (5 C)
Relative Humidity: 100%
Pressure (altimeter): 29.82 in. Hg (1009 hPa)
ob: KSME 171615Z AUTO 00000KT 7SM RA BKN008 OVC016 05/05 A2982 RMK AO2
cycle: 16

Station Type Date Time Source
KSME TAF 2019/02/17 12:42 UTC NOAA

TAF KSME 171139Z 1712/1812 00000KT 5SM RA OVC015
FM171800 VRB04KT 4SM SHRA OVC008
FM172300 VRB04KT 1SM SHRA OVC003
FM180200 27005KT 4SM -RA OVC003
FM180400 28005KT P6SM OVC008


Example: see airport list